St Crescent Heliport

FR-0099 · Aude, Occitanie, França

História da METAR FR-0099 · St Crescent Heliport

Abaixo você vê METARs dos últimos dias. Selecione um ano para navegar pelos METARs mais antigos, a partir do ano 2007.

29 de fevereiro de 2024

Hora Código Clima Temp. Visibilidade Tecto Vento METAR/SPECI
16:00
V
18 °C 10 km+ - 270° 270° 4 kt METAR LFMU 291500Z AUTO 27004KT 210V320 CAVOK 18/04 Q1009 NOSIG
15:30
V
18 °C 10 km+ - 230° 230° 5 kt METAR LFMU 291430Z AUTO 23005KT 180V260 CAVOK 18/03 Q1010 NOSIG
15:00
V
18 °C 10 km+ - Var Var 3 kt METAR LFMU 291400Z AUTO VRB03KT CAVOK 18/04 Q1010 NOSIG
14:30
V
17 °C 10 km+ - Var Var 4 kt METAR LFMU 291330Z AUTO VRB04KT CAVOK 17/03 Q1011 NOSIG
14:00
V
17 °C 10 km+ - 300° 300° 6 kt METAR LFMU 291300Z AUTO 30006KT 240V360 CAVOK 17/04 Q1011 NOSIG
13:30
V
16 °C 10 km+ - 330° 330° 4 kt METAR LFMU 291230Z AUTO 33004KT 240V040 CAVOK 16/03 Q1012 NOSIG
13:00
V
16 °C 10 km+ - 300° 300° 6 kt METAR LFMU 291200Z AUTO 30006KT 270V010 CAVOK 16/03 Q1012 NOSIG
12:30
V
15 °C 10 km+ - 290° 290° 7 kt METAR LFMU 291130Z AUTO 29007KT 250V330 CAVOK 15/04 Q1013 NOSIG
12:00
V
15 °C 10 km+ - 310° 310° 8 kt METAR LFMU 291100Z AUTO 31008KT 270V350 CAVOK 15/03 Q1014 NOSIG
11:30
V
14 °C 10 km+ - 320° 320° 9 kt METAR LFMU 291030Z AUTO 32009KT 290V350 CAVOK 14/04 Q1014 NOSIG
11:00
V
13 °C 10 km+ - 280° 280° 7 kt METAR LFMU 291000Z AUTO 28007KT 250V310 CAVOK 13/05 Q1015 NOSIG
10:30
V
12 °C 10 km+ - 290° 290° 8 kt METAR LFMU 290930Z AUTO 29008KT 260V320 CAVOK 12/04 Q1015 NOSIG
10:00
V
11 °C 10 km+ - 290° 290° 8 kt METAR LFMU 290900Z AUTO 29008KT CAVOK 11/04 Q1016 NOSIG
09:30
V
10 °C 10 km+ - 290° 290° 8 kt METAR LFMU 290830Z AUTO 29008KT CAVOK 10/04 Q1016 NOSIG
09:00
V
9 °C 10 km+ - 300° 300° 7 kt METAR LFMU 290800Z AUTO 30007KT CAVOK 09/04 Q1016 NOSIG
08:30
V
7 °C 10 km+ - Var Var 3 kt METAR LFMU 290730Z AUTO VRB03KT CAVOK 07/03 Q1016 NOSIG
08:00
V
5 °C 10 km+ - 300° 300° 6 kt METAR LFMU 290700Z AUTO 30006KT CAVOK 05/02 Q1016 NOSIG
07:30
V
5 °C 10 km+ - 300° 300° 5 kt METAR LFMU 290630Z AUTO 30005KT CAVOK 05/01 Q1016 NOSIG
07:00
V
5 °C 10 km+ - 290° 290° 9 kt METAR LFMU 290600Z AUTO 29009KT CAVOK 05/02 Q1016 NOSIG
06:30
V
5 °C 10 km+ - 300° 300° 5 kt METAR LFMU 290530Z AUTO 30005KT 270V340 CAVOK 05/01 Q1016 NOSIG
06:00
V
5 °C 10 km+ - 270° 270° 7 kt METAR LFMU 290500Z AUTO 27007KT CAVOK 05/01 Q1016 NOSIG
05:30
V
5 °C 10 km+ - 290° 290° 7 kt METAR LFMU 290430Z AUTO 29007KT CAVOK 05/01 Q1016 NOSIG
05:00
V
6 °C 10 km+ - 280° 280° 7 kt METAR LFMU 290400Z AUTO 28007KT CAVOK 06/01 Q1016 NOSIG
04:30
V
7 °C 10 km+ - 290° 290° 9 kt METAR LFMU 290330Z AUTO 29009KT CAVOK 07/02 Q1016 NOSIG
04:00
V
7 °C 10 km+ - 290° 290° 10 kt METAR LFMU 290300Z AUTO 29010KT CAVOK 07/02 Q1017 NOSIG
03:30
V
6 °C 10 km+ - 300° 300° 7 kt METAR LFMU 290230Z AUTO 30007KT CAVOK 06/01 Q1017
03:00
V
5 °C 10 km+ - 290° 290° 8 kt METAR LFMU 290200Z AUTO 29008KT CAVOK 05/01 Q1017
02:30
V
4 °C 10 km+ - 320° 320° 6 kt METAR LFMU 290130Z AUTO 32006KT CAVOK 04/00 Q1018
02:00
V
6 °C 10 km+ - 300° 300° 8 kt METAR LFMU 290100Z AUTO 30008KT CAVOK 06/00 Q1018
01:30
V
7 °C 10 km+ - 280° 280° 8 kt METAR LFMU 290030Z AUTO 28008KT CAVOK 07/01 Q1018
01:00
V
6 °C 10 km+ - 300° 300° 6 kt METAR LFMU 290000Z AUTO 30006KT 9999 NSC 06/01 Q1018
00:30
V
7 °C 10 km+ - 300° 300° 8 kt METAR LFMU 282330Z AUTO 30008KT CAVOK 07/01 Q1018
00:00
V
7 °C 10 km+ - 270° 270° 5 kt METAR LFMU 282300Z AUTO 27005KT CAVOK 07/01 Q1019

28 de fevereiro de 2024

Hora Código Clima Temp. Visibilidade Tecto Vento METAR/SPECI
23:30
V
7 °C 10 km+ - 310° 310° 8 kt METAR LFMU 282230Z AUTO 31008KT CAVOK 07/02 Q1019
23:00
V
6 °C 10 km+ - 300° 300° 4 kt METAR LFMU 282200Z AUTO 30004KT 270V330 CAVOK 06/02 Q1019
22:30
V
8 °C 10 km+ - 310° 310° 7 kt METAR LFMU 282130Z AUTO 31007KT CAVOK 08/03 Q1019
22:00
V
8 °C 10 km+ - 310° 310° 5 kt METAR LFMU 282100Z AUTO 31005KT CAVOK 08/03 Q1019
21:30
V
8 °C 10 km+ - 300° 300° 6 kt METAR LFMU 282030Z AUTO 30006KT CAVOK 08/03 Q1019
21:00
V
8 °C 10 km+ - 290° 290° 8 kt METAR LFMU 282000Z AUTO 29008KT CAVOK 08/04 Q1019
20:30
V
8 °C 10 km+ - 300° 300° 8 kt METAR LFMU 281930Z AUTO 30008KT CAVOK 08/03 Q1019 NOSIG
20:00
V
9 °C 10 km+ - 310° 310° 5 kt METAR LFMU 281900Z AUTO 31005KT CAVOK 09/03 Q1019 NOSIG
19:30
V
11 °C 10 km+ - 300° 300° 10 kt METAR LFMU 281830Z AUTO 30010KT CAVOK 11/03 Q1019 NOSIG
19:00
V
11 °C 10 km+ - 310° 310° 8 kt METAR LFMU 281800Z AUTO 31008KT CAVOK 11/03 Q1019 NOSIG
18:30
V
11 °C 10 km+ - 310° 310° 11 kt METAR LFMU 281730Z AUTO 31011KT CAVOK 11/03 Q1018 NOSIG
18:00
V
12 °C 10 km+ - 300° 300° 14 kt METAR LFMU 281700Z AUTO 30014KT CAVOK 12/03 Q1018 TEMPO 32020G30KT
17:30
V
13 °C 10 km+ - 300° 300° 16 kt METAR LFMU 281630Z AUTO 30016KT CAVOK 13/03 Q1018 TEMPO 32020G30KT
17:00
V
13 °C 10 km+ - 300° 300° 18 kt METAR LFMU 281600Z AUTO 30018KT CAVOK 13/04 Q1018 BECMG 32020G30KT
16:30
V
13 °C 10 km+ - 300° 300° 19 kt METAR LFMU 281530Z AUTO 30019KT CAVOK 13/03 Q1018 BECMG 32020G30KT
16:00
V
14 °C 10 km+ - 300° 300° 20 kt METAR LFMU 281500Z AUTO 30020KT CAVOK 14/03 Q1018 TEMPO 32020G30KT
15:30
V
13 °C 10 km+ - 300° 300° 22 kt METAR LFMU 281430Z AUTO 30022KT CAVOK 13/04 Q1018 TEMPO 32020G30KT
15:00
V
13 °C 10 km+ - 300° 300° 21 kt METAR LFMU 281400Z AUTO 30021KT CAVOK 13/04 Q1018 TEMPO 32020G30KT
14:30
V
14 °C 10 km+ - 330° 330° 19 - 29 kt METAR LFMU 281330Z AUTO 33019G29KT CAVOK 14/03 Q1018 NOSIG
14:00
V
13 °C 10 km+ - 320° 320° 21 kt METAR LFMU 281300Z AUTO 32021KT CAVOK 13/03 Q1018 TEMPO 32020G30KT
13:30
V
13 °C 10 km+ - 330° 330° 21 kt METAR LFMU 281230Z AUTO 33021KT CAVOK 13/03 Q1019 TEMPO 32020G30KT
13:00
V
13 °C 10 km+ - 320° 320° 20 kt METAR LFMU 281200Z AUTO 32020KT CAVOK 13/03 Q1019 TEMPO 32020G30KT
12:30
V
12 °C 10 km+ - 310° 310° 17 kt METAR LFMU 281130Z AUTO 31017KT CAVOK 12/04 Q1019 TEMPO 32020G30KT
12:00
V
12 °C 10 km+ - 320° 320° 19 - 30 kt METAR LFMU 281100Z AUTO 32019G30KT CAVOK 12/03 Q1019 NOSIG
11:30
V
11 °C 10 km+ 5.600 ft 300° 300° 19 kt METAR LFMU 281030Z AUTO 30019KT 9999 FEW041 BKN056 11/04 Q1019 TEMPO 32020G30KT
11:00
V
11 °C 10 km+ - 300° 300° 19 kt METAR LFMU 281000Z AUTO 30019KT CAVOK 11/04 Q1019 TEMPO 32020G30KT
10:30
V
11 °C 10 km+ - 300° 300° 17 kt METAR LFMU 280930Z AUTO 30017KT CAVOK 11/04 Q1018 TEMPO 32020G30KT
10:00
V
10 °C 10 km+ - 310° 310° 15 - 25 kt METAR LFMU 280900Z AUTO 31015G25KT 9999 //////TCU 10/03 Q1018 BECMG NSC
09:30
V
10 °C 10 km+ - 310° 310° 15 kt METAR LFMU 280830Z AUTO 31015KT CAVOK 10/03 Q1018 TEMPO 32018G28KT
09:00
V
10 °C 10 km+ - 320° 320° 15 kt METAR LFMU 280800Z AUTO 32015KT CAVOK 10/03 Q1018 TEMPO 32018G28KT RA BKN050 FEW065TCU BKN065
08:30
V
10 °C 10 km+ - 310° 310° 15 kt METAR LFMU 280730Z AUTO 31015KT CAVOK 10/03 Q1017 TEMPO 32018G28KT RA BKN050 FEW065TCU BKN065
08:00
V
10 °C 10 km+ - 310° 310° 13 kt METAR LFMU 280700Z AUTO 31013KT 9999 -RA //////TCU 10/03 Q1017 TEMPO 32018G28KT RA
07:30
V
10 °C 10 km+ - 310° 310° 17 kt METAR LFMU 280630Z AUTO 31017KT 9999 //////TCU 10/03 Q1017 TEMPO 32018G28KT RA
07:00
V
9 °C 10 km+ - 300° 300° 14 kt METAR LFMU 280600Z AUTO 30014KT 9999 -RA //////TCU 09/04 Q1016 TEMPO 32018G28KT RA
06:30
V
9 °C 10 km+ - 310° 310° 17 kt METAR LFMU 280530Z AUTO 31017KT 9999 -RA NSC 09/04 Q1016 TEMPO 32018G28KT RA BKN050 FEW065TCU BKN065
06:00
V
10 °C 10 km+ - 320° 320° 18 kt METAR LFMU 280500Z AUTO 32018KT CAVOK 10/03 Q1016 TEMPO 32018G28KT RA BKN050 FEW065TCU BKN065
05:30
V
10 °C 10 km+ - 310° 310° 18 kt METAR LFMU 280430Z AUTO 31018KT CAVOK 10/03 Q1015 TEMPO 32018G28KT RA BKN050 FEW065TCU BKN065
05:00
V
11 °C 10 km+ - 310° 310° 18 kt METAR LFMU 280400Z AUTO 31018KT 9999 //////TCU 11/02 Q1015 TEMPO 32018G28KT RA
04:30
V
10 °C 10 km+ - 310° 310° 20 - 31 kt METAR LFMU 280330Z AUTO 31020G31KT CAVOK 10/02 Q1015 TEMPO RA BKN050 FEW065TCU BKN065
04:00
V
10 °C 10 km+ - 310° 310° 17 kt METAR LFMU 280300Z AUTO 31017KT 9999 //////TCU 10/03 Q1015 TEMPO 32018G28KT RA
03:30
V
10 °C 10 km+ - 320° 320° 19 kt METAR LFMU 280230Z AUTO 32019KT CAVOK 10/03 Q1014
03:00
V
10 °C 10 km+ - 320° 320° 19 kt METAR LFMU 280200Z AUTO 32019KT 9999 //////TCU 10/03 Q1014
02:30
V
10 °C 10 km+ - 310° 310° 18 kt METAR LFMU 280130Z AUTO 31018KT 9999 //////TCU 10/03 Q1014
02:00
V
10 °C 10 km+ - 310° 310° 18 kt METAR LFMU 280100Z AUTO 31018KT 9999 //////TCU 10/03 Q1014
01:30
V
10 °C 10 km+ - 310° 310° 20 kt METAR LFMU 280030Z AUTO 31020KT 9999 //////TCU 10/03 Q1013
01:00
V
11 °C 10 km+ - 320° 320° 22 kt METAR LFMU 280000Z AUTO 32022KT 9999 //////TCU 11/03 Q1013
00:30
V
11 °C 10 km+ - 310° 310° 19 kt METAR LFMU 272330Z AUTO 31019KT CAVOK 11/04 Q1013
00:00
V
11 °C 10 km+ - 310° 310° 19 kt METAR LFMU 272300Z AUTO 31019KT CAVOK 11/04 Q1012

27 de fevereiro de 2024

Hora Código Clima Temp. Visibilidade Tecto Vento METAR/SPECI
23:30
V
10 °C 10 km+ - 310° 310° 19 kt METAR LFMU 272230Z AUTO 31019KT CAVOK 10/04 Q1012
23:00
V
10 °C 10 km+ 5.400 ft 310° 310° 17 kt METAR LFMU 272200Z AUTO 31017KT 9999 FEW044/// OVC054/// //////TCU 10/05 Q1012
22:30
V
10 °C 10 km+ 4.300 ft 310° 310° 17 kt METAR LFMU 272130Z AUTO 31017KT 9999 -RA BKN043/// OVC050/// //////TCU 10/05 Q1012
22:00
V
11 °C 10 km+ 4.900 ft 300° 300° 18 kt METAR LFMU 272100Z AUTO 30018KT 9999 FEW042/// BKN049/// OVC056/// //////TCU 11/04 Q1012
21:30
V
11 °C 10 km+ - 310° 310° 17 kt METAR LFMU 272030Z AUTO 31017KT CAVOK 11/04 Q1011
21:00
V
11 °C 10 km+ - 310° 310° 18 kt METAR LFMU 272000Z AUTO 31018KT CAVOK 11/05 Q1011
20:30
V
11 °C 10 km+ - 310° 310° 18 kt METAR LFMU 271930Z AUTO 31018KT CAVOK 11/05 Q1010 TEMPO RA FEW045TCU BKN045 BECMG 29017G27KT
20:00
V
11 °C 10 km+ - 300° 300° 14 kt METAR LFMU 271900Z AUTO 30014KT CAVOK 11/05 Q1010 TEMPO RA FEW045TCU BKN045 BECMG 29017G27KT
19:30
V
11 °C 10 km+ - 300° 300° 14 kt METAR LFMU 271830Z AUTO 30014KT CAVOK 11/06 Q1010 TEMPO RA FEW045TCU BKN045 BECMG 29017G27KT
19:00
V
11 °C 10 km+ - 300° 300° 14 kt METAR LFMU 271800Z AUTO 30014KT 9999 //////TCU 11/06 Q1009 TEMPO RA BECMG 29017G27KT
18:30
V
11 °C 10 km+ - 300° 300° 18 kt METAR LFMU 271730Z AUTO 30018KT 9999 //////TCU 11/06 Q1009 TEMPO RA BECMG 29017G27KT
18:00
V
11 °C 10 km+ - 300° 300° 13 kt METAR LFMU 271700Z AUTO 30013KT 9999 -RA ///TCU 11/07 Q1009 TEMPO RA BECMG 29017G27KT
17:30
V
11 °C 10 km+ 5.200 ft 310° 310° 15 kt METAR LFMU 271630Z AUTO 31015KT 9999 -RA FEW045/// OVC052/// ///TCU 11/07 Q1008 TEMPO RA BECMG 29017G27KT
17:00
V
12 °C 10 km+ 4.400 ft 310° 310° 15 kt METAR LFMU 271600Z AUTO 31015KT 9999 -RA OVC044/// //////CB 12/07 Q1008 TEMPO RA BECMG 29017G27KT
16:30
V
12 °C 10 km+ 4.600 ft 280° 280° 16 kt METAR LFMU 271530Z AUTO 28016KT 9999 BKN046/// OVC076/// ///CB 12/07 Q1008 TEMPO RA BECMG 29017G27KT
16:00
V
12 °C 10 km+ 8.400 ft 280° 280° 17 kt METAR LFMU 271500Z AUTO 28017KT 9999 FEW049/// BKN084/// //////TCU 12/07 Q1008 TEMPO RA BECMG 29017G27KT
15:30
V
12 °C 10 km+ 4.600 ft 270° 270° 18 kt METAR LFMU 271430Z AUTO 27018KT 9999 BKN046 BKN052 12/07 Q1007 TEMPO RA FEW045TCU BKN045 BECMG 29017G27KT
15:00
V
12 °C 10 km+ 4.800 ft 280° 280° 19 kt METAR LFMU 271400Z AUTO 28019KT 9999 BKN048 OVC060 12/07 Q1007 TEMPO SHRA FEW045CB BKN045 BECMG 28017G27KT
14:30
V
13 °C 10 km+ 4.600 ft 290° 290° 18 kt METAR LFMU 271330Z AUTO 29018KT 9999 BKN046 OVC052 13/06 Q1008 TEMPO SHRA FEW045CB BKN045 BECMG 28017G27KT
14:00
V
14 °C 10 km+ 4.500 ft 300° 300° 18 kt METAR LFMU 271300Z AUTO 30018KT 9999 BKN045 BKN056 14/06 Q1008 TEMPO SHRA FEW045CB BKN045 BECMG 28017G27KT
13:30
V
14 °C 10 km+ 4.800 ft 290° 290° 16 kt METAR LFMU 271230Z AUTO 29016KT 9999 BKN048 BKN058 14/06 Q1008 TEMPO SHRA FEW045CB BKN045 BECMG 28017G27KT
13:00
V
14 °C 10 km+ 4.500 ft 280° 280° 21 kt METAR LFMU 271200Z AUTO 28021KT 9999 BKN045 BKN052 14/07 Q1008 TEMPO SHRA FEW045CB BKN045 BECMG 28017G27KT
12:30
V
14 °C 10 km+ 6.000 ft 280° 280° 16 kt METAR LFMU 271130Z AUTO 28016KT 9999 SCT049 BKN060 BKN074 14/07 Q1008 TEMPO SHRA FEW045CB BKN045 BECMG 28017G27KT
12:00
V
13 °C 10 km+ - 270° 270° 17 kt METAR LFMU 271100Z AUTO 27017KT CAVOK 13/07 Q1008 BECMG 28017G27KT
11:30
V
14 °C 10 km+ - 270° 270° 15 kt METAR LFMU 271030Z AUTO 27015KT 240V300 CAVOK 14/08 Q1008 BECMG 28017G27KT
11:00
V
14 °C 10 km+ - 290° 290° 18 kt METAR LFMU 271000Z AUTO 29018KT CAVOK 14/06 Q1008 BECMG 28017G27KT
10:30
V
12 °C 10 km+ - 280° 280° 14 kt METAR LFMU 270930Z AUTO 28014KT CAVOK 12/07 Q1007 BECMG 28017G27KT
10:00
V
10 °C 10 km+ - 270° 270° 14 kt METAR LFMU 270900Z AUTO 27014KT CAVOK 10/06 Q1007 BECMG 28017G27KT
09:30
V
9 °C 10 km+ - 280° 280° 15 kt METAR LFMU 270830Z AUTO 28015KT CAVOK 09/05 Q1007 BECMG 27015G25KT SHRA SCT045TCU
09:00
V
8 °C 10 km+ - 270° 270° 15 kt METAR LFMU 270800Z AUTO 27015KT CAVOK 08/05 Q1007 NOSIG
08:30
V
8 °C 10 km+ - 270° 270° 17 kt METAR LFMU 270730Z AUTO 27017KT CAVOK 08/05 Q1007 NOSIG
08:00
V
8 °C 10 km+ - 280° 280° 17 kt METAR LFMU 270700Z AUTO 28017KT CAVOK 08/06 Q1006 NOSIG
07:30
V
8 °C 10 km+ - 280° 280° 15 kt METAR LFMU 270630Z AUTO 28015KT CAVOK 08/06 Q1006 NOSIG
07:00
V
8 °C 10 km+ - 280° 280° 14 kt METAR LFMU 270600Z AUTO 28014KT CAVOK 08/06 Q1006 NOSIG